createdAt,value
2022-07-26T00:02:03.007Z,2.70
2022-07-26T00:04:30.517Z,2.87
2022-07-26T00:06:58.053Z,3.03
2022-07-26T00:09:25.883Z,2.70
2022-07-26T00:11:53.358Z,2.60
2022-07-26T00:14:20.812Z,2.53
2022-07-26T00:16:48.266Z,2.77
2022-07-26T00:19:17.057Z,2.57
2022-07-26T00:21:44.443Z,3.00
2022-07-26T00:24:11.848Z,2.90
2022-07-26T00:26:39.256Z,3.23
2022-07-26T00:29:07.087Z,2.80
2022-07-26T00:31:34.832Z,2.93
2022-07-26T00:34:02.222Z,2.73
2022-07-26T00:36:29.739Z,2.57
2022-07-26T00:38:57.413Z,2.30
2022-07-26T00:41:24.757Z,2.83
2022-07-26T00:43:59.831Z,2.50
2022-07-26T00:46:27.625Z,2.60
2022-07-26T00:48:55.180Z,2.90
2022-07-26T00:51:22.895Z,2.70
2022-07-26T00:53:50.350Z,2.77
2022-07-26T00:56:17.992Z,2.77
2022-07-26T00:58:45.491Z,2.70
2022-07-26T01:01:12.980Z,2.50
2022-07-26T01:03:41.129Z,2.77
2022-07-26T01:06:09.125Z,2.97
2022-07-26T01:08:36.694Z,2.20
2022-07-26T01:11:04.131Z,3.10
2022-07-26T01:13:35.082Z,2.77
2022-07-26T01:16:03.902Z,2.83
2022-07-26T01:18:31.279Z,3.40
2022-07-26T01:21:01.633Z,2.60
2022-07-26T01:23:41.705Z,2.90
2022-07-26T01:26:09.399Z,2.20
2022-07-26T01:28:39.608Z,2.87
2022-07-26T01:31:08.088Z,2.70
2022-07-26T01:33:35.759Z,2.77
2022-07-26T01:36:03.320Z,2.60
2022-07-26T01:38:30.664Z,2.70
2022-07-26T01:40:57.970Z,2.40
2022-07-26T01:43:25.447Z,3.00
2022-07-26T01:45:55.324Z,2.20
2022-07-26T01:48:23.027Z,2.60
2022-07-26T01:50:50.534Z,2.70
2022-07-26T01:53:17.909Z,2.57
2022-07-26T01:55:45.296Z,2.37
2022-07-26T01:58:12.979Z,3.00
2022-07-26T02:00:40.631Z,2.57
2022-07-26T02:03:08.180Z,2.50
2022-07-26T02:05:35.507Z,2.73
2022-07-26T02:08:03.537Z,2.83
2022-07-26T02:10:49.764Z,2.53
2022-07-26T02:13:18.108Z,2.43
2022-07-26T02:15:45.644Z,2.37
2022-07-26T02:18:13.090Z,2.60
2022-07-26T02:20:40.929Z,2.47
2022-07-26T02:23:08.560Z,2.53
2022-07-26T02:25:35.922Z,2.33
2022-07-26T02:28:03.504Z,2.47
2022-07-26T02:30:31.169Z,2.57
2022-07-26T02:33:00.770Z,2.23
2022-07-26T02:35:28.229Z,2.70
2022-07-26T02:37:55.890Z,2.60
2022-07-26T02:40:23.230Z,2.40
2022-07-26T02:42:50.587Z,2.93
2022-07-26T02:45:17.958Z,2.70
2022-07-26T02:47:51.441Z,2.40
2022-07-26T02:50:24.202Z,2.33
2022-07-26T02:52:52.845Z,2.13
2022-07-26T02:55:24.142Z,2.33
2022-07-26T02:57:51.929Z,2.30
2022-07-26T03:00:22.739Z,2.50
2022-07-26T03:02:51.343Z,2.17
2022-07-26T03:05:19.617Z,2.13
2022-07-26T03:07:47.792Z,1.97
2022-07-26T03:10:15.741Z,2.30
2022-07-26T03:12:43.179Z,2.57
2022-07-26T03:15:11.210Z,2.00
2022-07-26T03:17:39.677Z,2.00
2022-07-26T03:20:07.770Z,2.00
2022-07-26T03:22:35.182Z,2.50
2022-07-26T03:25:02.825Z,2.00
2022-07-26T03:27:30.291Z,2.50
2022-07-26T03:29:57.701Z,2.63
2022-07-26T03:32:25.108Z,2.80
2022-07-26T03:34:52.551Z,2.50
2022-07-26T03:37:20.007Z,2.30
2022-07-26T03:39:47.390Z,2.43
2022-07-26T03:42:14.989Z,2.30
2022-07-26T03:44:43.009Z,2.70
2022-07-26T03:47:10.397Z,2.30
2022-07-26T03:49:37.745Z,2.67
2022-07-26T03:52:05.415Z,2.40
2022-07-26T03:54:32.980Z,2.80
2022-07-26T03:57:00.317Z,2.27
2022-07-26T03:59:27.686Z,2.27
2022-07-26T04:01:55.063Z,2.03
2022-07-26T04:04:25.354Z,1.97
2022-07-26T04:06:53.982Z,2.40
2022-07-26T04:09:21.366Z,2.37
2022-07-26T04:11:48.827Z,2.20
2022-07-26T04:14:16.366Z,1.93
2022-07-26T04:16:44.103Z,2.50
2022-07-26T04:19:11.599Z,1.93
2022-07-26T04:21:38.974Z,2.07
2022-07-26T04:24:07.096Z,1.93
2022-07-26T04:26:35.249Z,2.47
2022-07-26T04:29:02.603Z,2.43
2022-07-26T04:31:36.143Z,2.10
2022-07-26T04:34:04.370Z,2.60
2022-07-26T04:36:31.984Z,2.40
2022-07-26T04:38:59.713Z,2.70
2022-07-26T04:41:27.335Z,1.70
2022-07-26T04:43:54.638Z,2.33
2022-07-26T04:46:22.132Z,2.17
2022-07-26T04:48:49.553Z,2.37
2022-07-26T04:51:16.961Z,1.90
2022-07-26T04:53:44.366Z,2.20
2022-07-26T04:56:14.735Z,2.40
2022-07-26T04:58:42.114Z,1.90
2022-07-26T05:01:10.664Z,1.80
2022-07-26T05:03:39.571Z,1.73
2022-07-26T05:06:07.162Z,1.80
2022-07-26T05:08:34.477Z,1.80
2022-07-26T05:11:01.925Z,2.50
2022-07-26T05:13:30.459Z,2.13
2022-07-26T05:15:59.802Z,2.00
2022-07-26T05:18:29.890Z,1.97
2022-07-26T05:20:59.299Z,1.77
2022-07-26T05:23:27.089Z,1.90
2022-07-26T05:25:55.432Z,1.70
2022-07-26T05:28:23.171Z,1.93
2022-07-26T05:30:51.713Z,2.17
2022-07-26T05:33:19.138Z,2.13
2022-07-26T05:35:46.708Z,1.93
2022-07-26T05:38:15.570Z,2.23
2022-07-26T05:40:47.205Z,1.70
2022-07-26T05:43:17.622Z,1.80
2022-07-26T05:45:45.030Z,1.80
2022-07-26T05:48:12.510Z,2.20
2022-07-26T05:50:39.835Z,1.60
2022-07-26T05:53:07.236Z,1.87
2022-07-26T05:55:34.851Z,1.70
2022-07-26T05:58:02.258Z,1.60
2022-07-26T06:00:29.683Z,1.77
2022-07-26T06:02:57.294Z,1.90
2022-07-26T06:05:24.697Z,1.47
2022-07-26T06:07:52.071Z,1.80
2022-07-26T06:10:19.433Z,2.03
2022-07-26T06:12:46.850Z,1.80
2022-07-26T06:15:15.755Z,2.10
2022-07-26T06:17:43.457Z,2.17
2022-07-26T06:20:11.607Z,2.40
2022-07-26T06:22:39.004Z,2.43
2022-07-26T06:25:06.893Z,2.27
2022-07-26T06:27:34.267Z,2.10
2022-07-26T06:30:01.733Z,2.47
2022-07-26T06:32:29.099Z,2.22
2022-07-26T06:34:56.465Z,2.30
2022-07-26T06:37:23.806Z,2.07
2022-07-26T06:39:51.191Z,2.13
2022-07-26T06:42:18.745Z,2.25
2022-07-26T06:44:46.512Z,2.22
2022-07-26T06:47:13.921Z,1.85
2022-07-26T06:49:41.270Z,1.60
2022-07-26T06:52:08.598Z,2.00
2022-07-26T06:54:36.018Z,2.22
2022-07-26T06:57:03.719Z,2.00
2022-07-26T06:59:31.092Z,1.75
2022-07-26T07:02:00.549Z,2.05
2022-07-26T07:04:32.811Z,1.90
2022-07-26T07:07:05.962Z,1.90
2022-07-26T07:09:34.556Z,1.77
2022-07-26T07:12:09.981Z,1.60
2022-07-26T07:14:39.425Z,2.00
2022-07-26T07:17:12.046Z,1.58
2022-07-26T07:19:41.500Z,2.10
2022-07-26T07:22:11.872Z,1.83
2022-07-26T07:24:40.773Z,1.80
2022-07-26T07:27:08.880Z,1.95
2022-07-26T07:29:38.956Z,1.77
2022-07-26T07:32:15.942Z,1.45
2022-07-26T07:34:47.718Z,1.80
2022-07-26T07:37:16.784Z,1.60
2022-07-26T07:39:44.352Z,1.73
2022-07-26T07:42:18.443Z,1.40
2022-07-26T07:44:45.910Z,1.85
2022-07-26T07:47:16.371Z,1.52
2022-07-26T07:49:43.767Z,1.60
2022-07-26T07:52:11.290Z,1.40
2022-07-26T07:54:38.843Z,1.50
2022-07-26T07:57:06.291Z,1.48
2022-07-26T07:59:33.736Z,2.05
2022-07-26T08:02:06.750Z,1.55
2022-07-26T08:04:34.229Z,1.58
2022-07-26T08:07:02.316Z,1.55
2022-07-26T08:09:29.738Z,1.55
2022-07-26T08:12:01.406Z,1.30
2022-07-26T08:14:29.998Z,1.38
2022-07-26T08:16:57.467Z,1.52
2022-07-26T08:19:25.974Z,1.50
2022-07-26T08:21:56.755Z,1.38
2022-07-26T08:24:30.273Z,1.30
2022-07-26T08:26:57.798Z,1.20
2022-07-26T08:29:25.331Z,1.30
2022-07-26T08:31:52.874Z,1.60
2022-07-26T08:34:21.830Z,1.48
2022-07-26T08:37:07.213Z,1.30
2022-07-26T08:39:36.569Z,1.40
2022-07-26T08:42:04.262Z,1.60
2022-07-26T08:44:31.625Z,1.30
2022-07-26T08:46:59.051Z,1.52
2022-07-26T08:49:26.447Z,1.38
2022-07-26T08:51:53.838Z,1.33
2022-07-26T08:54:21.278Z,1.30
2022-07-26T08:56:53.123Z,1.02
2022-07-26T08:59:22.371Z,1.27
2022-07-26T09:02:03.942Z,1.08
2022-07-26T09:04:44.757Z,1.30
2022-07-26T09:07:15.536Z,1.23
2022-07-26T09:09:54.925Z,1.13
2022-07-26T09:12:23.236Z,0.90
2022-07-26T09:14:50.731Z,1.05
2022-07-26T09:17:21.065Z,1.15
2022-07-26T09:20:09.332Z,1.23
2022-07-26T09:23:06.202Z,0.88
2022-07-26T09:25:42.398Z,1.20
2022-07-26T09:28:24.125Z,1.05
2022-07-26T09:30:57.977Z,1.30
2022-07-26T09:33:26.735Z,1.30
2022-07-26T09:36:06.739Z,1.15
2022-07-26T09:38:42.875Z,1.05
2022-07-26T09:41:30.247Z,1.15
2022-07-26T09:44:00.880Z,1.10
2022-07-26T09:46:29.741Z,1.00
2022-07-26T09:49:13.676Z,0.98
2022-07-26T09:51:43.515Z,0.80
2022-07-26T09:54:12.297Z,1.10
2022-07-26T09:56:51.558Z,1.23
2022-07-26T09:59:21.640Z,1.30
2022-07-26T10:01:51.484Z,1.20
2022-07-26T10:04:20.470Z,1.17
2022-07-26T10:06:48.139Z,1.40
2022-07-26T10:09:16.056Z,1.38
2022-07-26T10:11:49.409Z,1.40
2022-07-26T10:14:36.428Z,1.17
2022-07-26T10:17:31.100Z,1.10
2022-07-26T10:20:10.547Z,1.17
2022-07-26T10:22:48.179Z,1.42
2022-07-26T10:25:18.745Z,1.10
2022-07-26T10:27:51.659Z,1.15
2022-07-26T10:30:19.080Z,1.30
2022-07-26T10:32:59.489Z,1.20
2022-07-26T10:35:43.327Z,1.40
2022-07-26T10:38:27.322Z,1.10
2022-07-26T10:41:07.520Z,1.40
2022-07-26T10:43:42.926Z,1.48
2022-07-26T10:46:16.500Z,1.40
2022-07-26T10:49:03.688Z,1.10
2022-07-26T10:51:37.126Z,1.20
2022-07-26T10:54:10.450Z,1.20
2022-07-26T10:56:39.069Z,1.52
2022-07-26T10:59:07.070Z,1.30
2022-07-26T11:01:39.442Z,1.20
2022-07-26T11:04:18.466Z,1.00
2022-07-26T11:06:46.013Z,1.15
2022-07-26T11:09:13.544Z,1.10
2022-07-26T11:11:46.495Z,1.15
2022-07-26T11:14:17.624Z,1.20
2022-07-26T11:16:50.343Z,1.02
2022-07-26T11:19:25.919Z,1.08
2022-07-26T11:22:00.665Z,1.10
2022-07-26T11:24:29.299Z,1.20
2022-07-26T11:27:02.061Z,1.27
2022-07-26T11:29:38.716Z,1.17
2022-07-26T11:32:20.912Z,1.10
2022-07-26T11:35:04.206Z,1.20
2022-07-26T11:37:31.832Z,1.20
2022-07-26T11:39:59.227Z,1.20
2022-07-26T11:42:26.647Z,1.70
2022-07-26T11:44:54.135Z,1.63
2022-07-26T11:47:25.536Z,1.80
2022-07-26T11:50:12.869Z,1.40
2022-07-26T11:52:41.913Z,1.63
2022-07-26T11:55:09.579Z,1.40
2022-07-26T11:57:37.131Z,1.38
2022-07-26T12:00:05.754Z,1.60
2022-07-26T12:02:39.178Z,1.20
2022-07-26T12:05:24.979Z,3.63
2022-07-26T12:07:54.858Z,1.50
2022-07-26T12:10:22.627Z,1.60
2022-07-26T12:12:50.235Z,1.25
2022-07-26T12:15:17.704Z,1.98
2022-07-26T12:17:58.756Z,2.00
2022-07-26T12:20:28.042Z,1.83
2022-07-26T12:22:58.324Z,1.88
2022-07-26T12:25:30.843Z,1.43
2022-07-26T12:27:58.272Z,1.50
2022-07-26T12:30:25.720Z,1.35
2022-07-26T12:33:02.072Z,1.60
2022-07-26T12:35:33.429Z,1.70
2022-07-26T12:38:01.735Z,1.23
2022-07-26T12:40:31.457Z,1.30
2022-07-26T12:43:02.654Z,1.50
2022-07-26T12:45:32.638Z,1.38
2022-07-26T12:48:01.779Z,1.40
2022-07-26T12:50:31.293Z,1.95
2022-07-26T12:53:04.619Z,1.40
2022-07-26T12:55:32.987Z,1.90
2022-07-26T12:58:00.630Z,1.10
2022-07-26T13:00:29.909Z,1.63
2022-07-26T13:02:57.892Z,1.73
2022-07-26T13:05:25.270Z,1.40
2022-07-26T13:07:52.800Z,1.55
2022-07-26T13:10:36.282Z,1.80
2022-07-26T13:13:05.128Z,1.80
2022-07-26T13:15:36.023Z,1.35
2022-07-26T13:18:07.001Z,1.23
2022-07-26T13:20:36.403Z,1.55
2022-07-26T13:23:03.966Z,1.67
2022-07-26T13:25:38.478Z,1.50
2022-07-26T13:28:08.544Z,1.10
2022-07-26T13:30:38.168Z,1.52
2022-07-26T13:33:06.724Z,1.60
2022-07-26T13:35:34.277Z,1.70
2022-07-26T13:38:02.002Z,1.75
2022-07-26T13:40:31.841Z,1.70
2022-07-26T13:43:00.218Z,1.60
2022-07-26T13:45:29.360Z,1.70
2022-07-26T13:47:59.984Z,2.20
2022-07-26T13:50:28.293Z,1.80
2022-07-26T13:52:56.646Z,1.50
2022-07-26T13:55:25.033Z,1.60
2022-07-26T13:57:56.165Z,1.47
2022-07-26T14:00:29.282Z,1.52
2022-07-26T14:03:00.563Z,1.80
2022-07-26T14:05:28.724Z,1.70
2022-07-26T14:07:56.453Z,1.42
2022-07-26T14:10:24.511Z,1.95
2022-07-26T14:12:52.502Z,2.17
2022-07-26T14:15:23.094Z,1.75
2022-07-26T14:17:52.295Z,1.88
2022-07-26T14:20:20.999Z,1.43
2022-07-26T14:22:53.148Z,1.63
2022-07-26T14:25:24.757Z,2.10
2022-07-26T14:27:53.436Z,2.10
2022-07-26T14:30:22.248Z,1.73
2022-07-26T14:32:49.996Z,1.50
2022-07-26T14:35:17.596Z,1.80
2022-07-26T14:37:45.986Z,1.35
2022-07-26T14:40:15.999Z,1.70
2022-07-26T14:42:43.771Z,1.77
2022-07-26T14:45:11.417Z,1.70
2022-07-26T14:47:39.324Z,1.63
2022-07-26T14:50:08.588Z,1.60
2022-07-26T14:52:40.970Z,2.17
2022-07-26T14:55:09.040Z,1.70
2022-07-26T14:57:39.250Z,1.92
2022-07-26T15:00:11.311Z,1.90
2022-07-26T15:02:40.716Z,1.80
2022-07-26T15:05:09.364Z,1.80
2022-07-26T15:07:37.524Z,1.77
2022-07-26T15:10:06.529Z,1.95
2022-07-26T15:12:34.062Z,1.90
2022-07-26T15:15:01.822Z,1.50
2022-07-26T15:17:29.601Z,1.80
2022-07-26T15:20:00.082Z,1.75
2022-07-26T15:22:27.602Z,1.80
2022-07-26T15:24:54.950Z,1.80
2022-07-26T15:27:22.383Z,2.03
2022-07-26T15:29:50.757Z,2.00
2022-07-26T15:32:19.678Z,2.10
2022-07-26T15:34:47.114Z,1.98
2022-07-26T15:37:14.668Z,2.05
2022-07-26T15:39:42.122Z,2.13
2022-07-26T15:42:09.944Z,1.73
2022-07-26T15:44:41.143Z,2.10
2022-07-26T15:47:08.913Z,1.70
2022-07-26T15:49:40.624Z,1.98
2022-07-26T15:52:10.653Z,2.03
2022-07-26T15:54:38.422Z,2.00
2022-07-26T15:57:06.084Z,1.90
2022-07-26T15:59:33.427Z,1.80
2022-07-26T16:02:00.914Z,2.27
2022-07-26T16:04:28.331Z,2.23
2022-07-26T16:06:55.827Z,2.40
2022-07-26T16:09:23.229Z,2.63
2022-07-26T16:11:50.640Z,2.20
2022-07-26T16:14:18.398Z,2.07
2022-07-26T16:16:45.927Z,2.00
2022-07-26T16:19:14.136Z,2.13
2022-07-26T16:21:41.808Z,2.00
2022-07-26T16:24:09.342Z,1.90
2022-07-26T16:26:36.823Z,2.13
2022-07-26T16:29:04.817Z,2.20
2022-07-26T16:31:33.466Z,2.30
2022-07-26T16:34:00.965Z,2.40
2022-07-26T16:36:29.219Z,2.47
2022-07-26T16:38:56.883Z,2.03
2022-07-26T16:41:24.204Z,2.00
2022-07-26T16:43:51.669Z,2.10
2022-07-26T16:46:19.067Z,1.93
2022-07-26T16:48:46.829Z,2.13
2022-07-26T16:51:43.659Z,2.30
2022-07-26T16:54:11.025Z,2.00
2022-07-26T16:56:38.417Z,2.30
2022-07-26T16:59:10.322Z,2.20
2022-07-26T17:01:37.999Z,2.07
2022-07-26T17:04:05.671Z,2.13
2022-07-26T17:06:32.982Z,2.10
2022-07-26T17:09:00.311Z,2.23
2022-07-26T17:11:27.680Z,2.43
2022-07-26T17:13:55.183Z,2.17
2022-07-26T17:16:24.671Z,2.87
2022-07-26T17:18:53.604Z,2.87
2022-07-26T17:21:24.437Z,2.30
2022-07-26T17:23:51.925Z,2.20
2022-07-26T17:26:20.038Z,1.90
2022-07-26T17:28:47.440Z,2.43
2022-07-26T17:31:14.805Z,2.10
2022-07-26T17:33:42.382Z,2.93
2022-07-26T17:36:26.538Z,2.17
2022-07-26T17:38:54.731Z,2.23
2022-07-26T17:41:23.619Z,2.53
2022-07-26T17:44:02.349Z,3.23
2022-07-26T17:46:32.481Z,2.60
2022-07-26T17:49:00.612Z,2.87
2022-07-26T17:51:28.082Z,3.00
2022-07-26T17:53:55.522Z,2.43
2022-07-26T17:56:22.847Z,2.60
2022-07-26T17:58:50.198Z,3.30
2022-07-26T18:01:17.622Z,3.27
2022-07-26T18:03:45.030Z,2.67
2022-07-26T18:06:12.865Z,2.53
2022-07-26T18:08:40.340Z,2.73
2022-07-26T18:11:09.801Z,2.17
2022-07-26T18:13:38.351Z,2.60
2022-07-26T18:16:06.387Z,2.23
2022-07-26T18:18:34.063Z,2.47
2022-07-26T18:21:01.376Z,2.73
2022-07-26T18:23:28.917Z,2.27
2022-07-26T18:25:57.978Z,2.80
2022-07-26T18:28:25.516Z,2.60
2022-07-26T18:30:52.999Z,2.60
2022-07-26T18:33:20.600Z,2.63
2022-07-26T18:35:48.173Z,3.37
2022-07-26T18:38:15.963Z,2.60
2022-07-26T18:40:43.627Z,3.27
2022-07-26T18:43:11.551Z,2.50
2022-07-26T18:45:39.098Z,2.50
2022-07-26T18:48:06.602Z,2.60
2022-07-26T18:50:34.373Z,2.97
2022-07-26T18:53:02.318Z,2.23
2022-07-26T18:55:29.741Z,2.70
2022-07-26T18:57:57.215Z,2.80
2022-07-26T19:00:25.246Z,3.57
2022-07-26T19:02:57.366Z,2.63
2022-07-26T19:05:24.810Z,2.60
2022-07-26T19:07:52.306Z,2.53
2022-07-26T19:10:20.111Z,2.80
2022-07-26T19:12:48.454Z,2.40
2022-07-26T19:15:16.541Z,2.30
2022-07-26T19:17:44.310Z,2.80
2022-07-26T19:20:12.533Z,3.07
2022-07-26T19:22:40.432Z,2.67
2022-07-26T19:25:10.363Z,2.67
2022-07-26T19:27:38.181Z,2.50
2022-07-26T19:30:08.186Z,2.60
2022-07-26T19:32:35.651Z,2.33
2022-07-26T19:35:03.950Z,2.53
2022-07-26T19:37:31.838Z,2.60
2022-07-26T19:40:01.153Z,2.20
2022-07-26T19:42:31.746Z,2.50
2022-07-26T19:44:59.630Z,2.10
2022-07-26T19:47:28.911Z,2.33
2022-07-26T19:49:56.853Z,2.20
2022-07-26T19:52:24.405Z,2.80
2022-07-26T19:54:51.873Z,3.10
2022-07-26T19:57:19.487Z,2.50
2022-07-26T19:59:48.023Z,2.30
2022-07-26T20:02:15.783Z,2.47
2022-07-26T20:04:46.132Z,2.23
2022-07-26T20:07:19.115Z,2.10
2022-07-26T20:09:48.229Z,2.43
2022-07-26T20:12:16.074Z,2.37
2022-07-26T20:15:01.814Z,2.30
2022-07-26T20:17:52.307Z,2.70
2022-07-26T20:20:20.156Z,2.50
2022-07-26T20:22:47.606Z,2.17
2022-07-26T20:25:21.155Z,2.70
2022-07-26T20:27:51.188Z,2.17
2022-07-26T20:30:19.404Z,2.27
2022-07-26T20:32:46.756Z,2.30
2022-07-26T20:35:14.154Z,2.10
2022-07-26T20:37:43.030Z,2.20
2022-07-26T20:40:12.513Z,2.60
2022-07-26T20:42:44.208Z,2.67
2022-07-26T20:45:13.122Z,2.37
2022-07-26T20:47:40.789Z,3.20
2022-07-26T20:50:09.984Z,2.93
2022-07-26T20:52:37.521Z,2.80
2022-07-26T20:55:06.199Z,2.77
2022-07-26T20:57:33.981Z,2.40
2022-07-26T21:00:01.464Z,2.70
2022-07-26T21:02:28.887Z,2.80
2022-07-26T21:04:56.337Z,2.63
2022-07-26T21:07:24.119Z,2.70
2022-07-26T21:10:11.743Z,2.73
2022-07-26T21:12:39.067Z,2.73
2022-07-26T21:15:06.817Z,2.43
2022-07-26T21:17:34.511Z,2.60
2022-07-26T21:20:03.023Z,2.40
2022-07-26T21:22:30.939Z,2.23
2022-07-26T21:24:58.206Z,2.10
2022-07-26T21:27:25.619Z,2.20
2022-07-26T21:29:52.942Z,1.90
2022-07-26T21:32:20.277Z,2.63
2022-07-26T21:34:47.739Z,5.17
2022-07-26T21:37:15.237Z,2.20
2022-07-26T21:39:42.638Z,2.10
2022-07-26T21:42:10.038Z,2.20
2022-07-26T21:44:37.362Z,2.03
2022-07-26T21:47:05.842Z,1.97
2022-07-26T21:49:34.243Z,1.90
2022-07-26T21:52:01.615Z,1.90
2022-07-26T21:54:29.004Z,1.83
2022-07-26T21:56:56.327Z,2.10
2022-07-26T21:59:23.719Z,2.03
2022-07-26T22:01:51.109Z,1.87
2022-07-26T22:04:18.565Z,1.63
2022-07-26T22:06:46.021Z,1.80
2022-07-26T22:09:13.787Z,1.63
2022-07-26T22:11:41.467Z,1.77
2022-07-26T22:14:09.059Z,2.00
2022-07-26T22:16:36.536Z,2.00
2022-07-26T22:19:03.985Z,1.67
2022-07-26T22:21:31.357Z,1.73
2022-07-26T22:23:58.855Z,1.80
2022-07-26T22:26:30.914Z,1.90
2022-07-26T22:28:58.912Z,1.70
2022-07-26T22:31:26.486Z,1.77
2022-07-26T22:33:54.280Z,1.80
2022-07-26T22:36:21.668Z,1.60
2022-07-26T22:38:49.093Z,2.17
2022-07-26T22:41:16.584Z,1.90
2022-07-26T22:43:43.942Z,1.80
2022-07-26T22:46:11.334Z,1.60
2022-07-26T22:48:39.915Z,1.50
2022-07-26T22:51:09.657Z,1.70
2022-07-26T22:53:37.002Z,1.37
2022-07-26T22:56:04.575Z,1.60
2022-07-26T22:58:31.951Z,1.60
2022-07-26T23:00:59.377Z,1.50
2022-07-26T23:03:26.871Z,1.40
2022-07-26T23:05:56.506Z,1.50
2022-07-26T23:08:45.896Z,1.53
2022-07-26T23:11:11.254Z,1.40
2022-07-26T23:13:38.639Z,1.30
2022-07-26T23:16:06.184Z,1.57
2022-07-26T23:18:52.169Z,1.50
2022-07-26T23:21:19.640Z,1.10
2022-07-26T23:23:46.964Z,1.40
2022-07-26T23:26:14.370Z,1.50
2022-07-26T23:28:41.688Z,1.40
2022-07-26T23:31:11.153Z,1.40
2022-07-26T23:33:50.654Z,1.30
2022-07-26T23:36:22.858Z,1.70
2022-07-26T23:38:50.654Z,1.50
2022-07-26T23:41:19.017Z,1.80
2022-07-26T23:43:46.335Z,1.40
2022-07-26T23:46:13.817Z,1.47
2022-07-26T23:48:41.481Z,1.40
2022-07-26T23:51:08.943Z,1.30
2022-07-26T23:53:36.332Z,1.40
2022-07-26T23:56:03.825Z,1.20
2022-07-26T23:58:31.115Z,1.33
